Zeigler, IL (62999)

11:57 AM CDT on May 05, 2015 (GMT -0500)
Off the circle | | Change Station
CLOSE
Current Station
Personal Weather Station
Location: Zeigler, IL
Elevation: 390 ft
Nearby Weather Stations

Elev 390 ft 37.90 °N, 89.05 °W | Updated 9 minutes ago

Partly Cloudy
Partly Cloudy
83.3 °F
Feels Like 85 °F
N
3.7
Wind Variable Wind from SSW

Today
High -- | Low -- °F
--% Chance of Precip.
Yesterday
High -- | Low -- °F
Precip. -- in
5:56 AM 7:50 PM
Full, 97% visible
Pressure 30.23 in
Visibility 20.0 miles
Clouds Scattered Clouds 15000 ft
Heat Index 85 °F
Dew Point 64 °F
Humidity 53%
Rainfall 0.00 in
Snow Depth Not available.
UV 8 out of 12
Pollen 10.30 out of 12
Air Quality Not available.
Flu Activity Local Activity
METAR KMWA 051645Z 22008G12KT 20SM SCT150 27/14 A3023

More Conditions Fewer Conditions

Pressure 30.23 in
Visibility 20.0 miles
Clouds Scattered Clouds 15000 ft
Heat Index 85 °F
Dew Point 64 °F
Humidity 53%
Rainfall 0.00 in
Snow Depth Not available.
UV 8 out of 12
Pollen 10.30 out of 12
Air Quality Not available.
Flu Activity Local Activity
METAR KMWA 051645Z 22008G12KT 20SM SCT150 27/14 A3023

More Conditions Fewer Conditions

10-Day Weather Forecast

Almanac

Astronomy

May. 05, 2015 Rise Set
Actual Time
Civil Twilight
Nautical Twilight
Astronomical Twilight
Moon
Length of Visible Light
Length of Day
Tomorrow will be .
, % of the Moon is Illuminated

Today's Extremes

State Highs State Lows

Community

WunderPhotos

Upload Photos

1,818,937 photos uploaded!

WunderBlogs® & News

Nearby

Air Quality

  Air Quality AQ Index Pollutant
Not available.

Snow Depth

Station Depth Elevation

Earthquake Activity

City Distance Mag. Time & Date
Minimum magnitude displayed is 2.5.

Coastal Water Temperatures

Place Temperature

Stations

Nearby Weather Stations

Station Location Temp. Windchill Dew Point Humidity Wind Precip. Elev Updated Type